Time;durP1;ratioP1;P1;durP2;ratioP2;P2;SDS_P1;SDS_P2;PMS_P1;PMS_P2;Temp;Humidity;BMP_temperature;BMP_pressure;BME280_temperature;BME280_humidity;BME280_pressure;Samples;Min_cycle;Max_cycle;Signal;HPM_P1;HPM_P2
2022/02/05 00:03:13;;;;;;;13.23;2.50;;;5.70;99.90;;;;;;5032872;28;25142;-69
2022/02/05 00:05:46;;;;;;;20.70;3.25;;;5.70;99.90;;;;;;5036170;28;25080;-70
2022/02/05 00:11:12;;;;;;;12.10;2.00;;;5.70;99.90;;;;;;5009066;28;25058;-68
2022/02/05 00:38:50;;;;;;;19.17;3.53;;;5.50;99.90;;;;;;4979864;28;25089;-67
2022/02/05 00:43:39;;;;;;;17.98;3.28;;;5.40;99.90;;;;;;5023017;28;25058;-68
2022/02/05 00:46:07;;;;;;;12.95;2.67;;;5.40;99.90;;;;;;5032856;28;25073;-69
2022/02/05 00:48:32;;;;;;;17.58;2.83;;;5.40;99.90;;;;;;5028231;28;25081;-67
2022/02/05 00:51:10;;;;;;;14.48;3.13;;;5.40;99.90;;;;;;5037336;28;25106;-69
2022/02/05 00:53:38;;;;;;;8.88;3.33;;;5.40;99.90;;;;;;5028840;28;25136;-69
2022/02/05 00:56:20;;;;;;;20.88;3.70;;;5.40;99.90;;;;;;5027703;28;25057;-69
2022/02/05 00:58:45;;;;;;;16.45;2.80;;;5.30;99.90;;;;;;5026893;28;25077;-68
2022/02/05 01:01:11;;;;;;;13.05;2.60;;;5.30;99.90;;;;;;5029226;28;25055;-69
2022/02/05 01:03:38;;;;;;;22.45;4.35;;;5.30;99.90;;;;;;5016817;28;25056;-68
2022/02/05 01:06:06;;;;;;;13.00;3.13;;;5.40;99.90;;;;;;5012822;28;25096;-68
2022/02/05 01:08:33;;;;;;;11.35;2.70;;;5.30;99.90;;;;;;5046756;28;25060;-68
2022/02/05 01:10:58;;;;;;;14.10;3.17;;;5.30;99.90;;;;;;5024855;28;24892;-68
2022/02/05 01:13:25;;;;;;;21.60;4.00;;;5.30;99.90;;;;;;5026804;28;25143;-64
2022/02/05 01:16:05;;;;;;;17.55;3.08;;;5.30;99.90;;;;;;5009149;28;25074;-68
2022/02/05 01:18:32;;;;;;;14.75;2.95;;;5.30;99.90;;;;;;5027680;28;25061;-69
2022/02/05 01:23:42;;;;;;;15.23;2.40;;;5.30;99.90;;;;;;5025130;28;25105;-68
2022/02/05 01:26:17;;;;;;;11.77;2.45;;;5.30;99.90;;;;;;5024638;28;25100;-69
2022/02/05 01:28:46;;;;;;;19.60;3.13;;;5.30;99.90;;;;;;5036467;28;25080;-68
2022/02/05 01:31:11;;;;;;;18.92;3.80;;;5.30;99.90;;;;;;5028343;28;25114;-70
2022/02/05 01:52:10;;;;;;;14.15;2.65;;;5.20;99.90;;;;;;5025761;28;25091;-69
2022/02/05 01:58:12;;;;;;;18.05;2.90;;;5.10;99.90;;;;;;5004734;28;25100;-68
2022/02/05 02:22:07;;;;;;;22.35;2.70;;;5.00;99.90;;;;;;5008747;28;25069;-71
2022/02/05 02:27:23;;;;;;;23.58;3.38;;;5.00;99.90;;;;;;5029172;28;25062;-71
2022/02/05 02:30:40;;;;;;;13.40;2.83;;;5.00;99.90;;;;;;5009223;28;25047;-69
2022/02/05 02:32:39;;;;;;;16.45;2.75;;;5.00;99.90;;;;;;4996683;28;25069;-68
2022/02/05 02:35:11;;;;;;;14.48;3.03;;;5.00;99.90;;;;;;5023535;28;25072;-71
2022/02/05 02:37:47;;;;;;;17.33;2.70;;;5.00;99.90;;;;;;5030172;28;25116;-69
2022/02/05 02:42:46;;;;;;;15.23;2.78;;;4.90;99.90;;;;;;5024819;28;25089;-70
2022/02/05 02:45:11;;;;;;;21.63;3.60;;;4.80;99.90;;;;;;5018860;28;25060;-69
2022/02/05 02:47:42;;;;;;;13.48;2.55;;;4.90;99.90;;;;;;5051179;28;25068;-71
2022/02/05 02:50:16;;;;;;;12.50;2.45;;;4.90;99.90;;;;;;5028045;28;25129;-69
2022/02/05 02:58:15;;;;;;;10.95;2.22;;;4.80;99.90;;;;;;5023122;28;25077;-70
2022/02/05 03:00:41;;;;;;;19.25;3.22;;;4.80;99.90;;;;;;5019812;28;25071;-69
2022/02/05 03:03:07;;;;;;;12.43;2.85;;;4.80;99.90;;;;;;5017934;28;25103;-70
2022/02/05 03:05:32;;;;;;;21.90;3.15;;;4.80;99.90;;;;;;5010757;28;25061;-71
2022/02/05 03:07:58;;;;;;;18.60;2.53;;;4.80;99.90;;;;;;5019580;28;25058;-69
2022/02/05 03:10:23;;;;;;;13.52;2.90;;;4.80;99.90;;;;;;5014557;28;25060;-68
2022/02/05 03:12:49;;;;;;;14.23;2.72;;;4.80;99.90;;;;;;5009653;28;25118;-69
2022/02/05 03:15:19;;;;;;;13.20;2.47;;;4.80;99.90;;;;;;5024837;28;25134;-69
2022/02/05 03:18:02;;;;;;;20.23;3.40;;;4.80;99.90;;;;;;5007393;28;25062;-68
2022/02/05 03:20:27;;;;;;;16.75;3.25;;;4.80;99.90;;;;;;5026815;28;25112;-68
2022/02/05 03:22:53;;;;;;;17.10;3.35;;;4.80;99.90;;;;;;5028475;28;25130;-69
2022/02/05 03:25:18;;;;;;;15.18;2.65;;;4.80;99.90;;;;;;5006159;28;25119;-68
2022/02/05 03:27:44;;;;;;;16.35;2.90;;;4.90;99.90;;;;;;5013638;28;25107;-71
2022/02/05 03:30:11;;;;;;;17.30;3.35;;;4.90;99.90;;;;;;5028763;28;25102;-71
2022/02/05 03:32:36;;;;;;;16.85;2.55;;;4.80;99.90;;;;;;5015631;28;25074;-71
2022/02/05 03:35:02;;;;;;;21.60;3.25;;;4.80;99.90;;;;;;5027414;28;25074;-70
2022/02/05 03:37:28;;;;;;;24.58;2.42;;;4.80;99.90;;;;;;5027969;28;25098;-70
2022/02/05 03:39:53;;;;;;;26.75;3.10;;;4.80;99.90;;;;;;5036703;28;25069;-71
2022/02/05 03:42:19;;;;;;;13.50;2.72;;;4.80;99.90;;;;;;5030807;28;25131;-71
2022/02/05 03:44:44;;;;;;;15.38;2.85;;;4.80;99.90;;;;;;5026185;28;25063;-68
2022/02/05 03:47:10;;;;;;;17.35;4.10;;;4.80;99.90;;;;;;5027937;28;25074;-69
2022/02/05 03:49:36;;;;;;;15.77;3.45;;;4.80;99.90;;;;;;5011337;28;25081;-70
2022/02/05 03:52:02;;;;;;;19.77;2.63;;;4.80;99.90;;;;;;5020578;28;25077;-71
2022/02/05 03:54:30;;;;;;;21.58;3.53;;;4.70;99.90;;;;;;5030922;28;25063;-68
2022/02/05 03:56:56;;;;;;;17.63;2.78;;;4.70;99.90;;;;;;5029705;28;25084;-69
2022/02/05 03:59:21;;;;;;;10.88;3.03;;;4.70;99.90;;;;;;5030890;28;25102;-68
2022/02/05 04:01:47;;;;;;;21.63;3.17;;;4.70;99.90;;;;;;5030535;28;25135;-68
2022/02/05 04:04:13;;;;;;;12.55;3.28;;;4.60;99.90;;;;;;5028887;28;25053;-70
2022/02/05 04:06:39;;;;;;;16.45;3.20;;;4.70;99.90;;;;;;5028812;28;25054;-70
2022/02/05 04:09:10;;;;;;;14.35;2.67;;;4.60;99.90;;;;;;5029220;28;25073;-69
2022/02/05 04:11:55;;;;;;;16.00;3.22;;;4.60;99.90;;;;;;5040781;28;25066;-69
2022/02/05 04:17:05;;;;;;;28.70;4.15;;;4.50;99.90;;;;;;5028618;28;25151;-69
2022/02/05 04:19:30;;;;;;;17.75;3.38;;;4.60;99.90;;;;;;5027675;28;25059;-70
2022/02/05 04:21:56;;;;;;;16.92;2.83;;;4.50;99.90;;;;;;5019500;28;25137;-70
2022/02/05 04:24:22;;;;;;;16.67;5.03;;;4.50;99.90;;;;;;5031560;28;25097;-71
2022/02/05 04:26:48;;;;;;;21.98;3.42;;;4.50;99.90;;;;;;5029842;28;25062;-71
2022/02/05 04:29:13;;;;;;;20.08;2.67;;;4.50;99.90;;;;;;5029373;28;25116;-70
2022/02/05 04:31:40;;;;;;;23.17;3.55;;;4.40;99.90;;;;;;5011141;28;25087;-68
2022/02/05 04:34:14;;;;;;;17.55;3.00;;;4.40;99.90;;;;;;5025905;28;25049;-70
2022/02/05 04:36:40;;;;;;;18.75;2.83;;;4.40;99.90;;;;;;5028932;28;25153;-70
2022/02/05 04:39:16;;;;;;;21.23;3.05;;;4.40;99.90;;;;;;5029501;28;25072;-71
2022/02/05 04:41:51;;;;;;;18.52;3.42;;;4.40;99.90;;;;;;4995308;28;25098;-70
2022/02/05 04:58:29;;;;;;;15.73;2.78;;;4.40;99.90;;;;;;4970554;28;25133;-71
2022/02/05 05:06:31;;;;;;;16.88;3.28;;;4.30;99.90;;;;;;5037085;28;25060;-69
2022/02/05 05:09:14;;;;;;;15.38;3.75;;;4.30;99.90;;;;;;5012925;28;25164;-69
2022/02/05 05:11:52;;;;;;;;;;;4.30;99.90;;;;;;5024342;28;25078;-70
2022/02/05 05:19:32;;;;;;;18.40;2.65;;;4.20;99.90;;;;;;5029903;28;25069;-70
2022/02/05 05:22:00;;;;;;;21.23;2.97;;;4.30;99.90;;;;;;5006256;28;25061;-70
2022/02/05 05:24:27;;;;;;;13.50;3.58;;;4.20;99.90;;;;;;5026882;28;25072;-72
2022/02/05 05:26:58;;;;;;;20.25;3.67;;;4.20;99.90;;;;;;5030092;28;25064;-71
2022/02/05 05:29:24;;;;;;;19.10;3.07;;;4.20;99.90;;;;;;5010950;28;25078;-73
2022/02/05 05:31:50;;;;;;;23.00;3.55;;;4.10;99.90;;;;;;4993561;28;25080;-71
2022/02/05 05:34:16;;;;;;;24.10;3.40;;;4.10;99.90;;;;;;5019641;28;25057;-71
2022/02/05 05:36:41;;;;;;;18.35;3.50;;;4.20;99.90;;;;;;5047189;28;25092;-69
2022/02/05 05:39:08;;;;;;;19.63;3.33;;;4.20;99.90;;;;;;5047146;28;25069;-69
2022/02/05 05:41:36;;;;;;;13.85;3.30;;;4.20;99.90;;;;;;5030908;28;25056;-69
2022/02/05 05:46:50;;;;;;;16.15;3.40;;;4.10;99.90;;;;;;5026171;28;25075;-71
2022/02/05 05:49:18;;;;;;;11.52;2.80;;;4.10;99.90;;;;;;5014062;28;25146;-70
2022/02/05 05:51:45;;;;;;;18.63;3.50;;;4.20;99.90;;;;;;5026497;28;25150;-72
2022/02/05 05:54:11;;;;;;;21.90;3.47;;;4.10;99.90;;;;;;5019205;28;25070;-71
2022/02/05 05:56:37;;;;;;;14.93;3.30;;;4.10;99.90;;;;;;5027649;28;25085;-72
2022/02/05 05:59:04;;;;;;;20.60;3.30;;;4.10;99.90;;;;;;5023163;28;25100;-70
2022/02/05 06:01:30;;;;;;;19.80;3.38;;;4.10;99.90;;;;;;5021510;28;25070;-71
2022/02/05 06:03:55;;;;;;;21.60;3.35;;;4.10;99.90;;;;;;5010665;28;25081;-70
2022/02/05 06:06:21;;;;;;;19.33;3.10;;;4.00;99.90;;;;;;5021855;28;25112;-69
2022/02/05 06:08:46;;;;;;;21.10;3.47;;;4.00;99.90;;;;;;5022712;28;25079;-71
2022/02/05 06:11:12;;;;;;;16.98;3.65;;;4.00;99.90;;;;;;5024742;28;25078;-71
2022/02/05 06:13:37;;;;;;;20.70;3.15;;;4.00;99.90;;;;;;5005489;28;25075;-70
2022/02/05 06:16:08;;;;;;;18.15;4.15;;;4.00;99.90;;;;;;5027940;28;25112;-70
2022/02/05 06:18:33;;;;;;;23.05;3.45;;;4.00;99.90;;;;;;5021733;28;25080;-69
2022/02/05 06:20:59;;;;;;;15.75;2.88;;;4.10;99.90;;;;;;5025887;28;25106;-70
2022/02/05 06:23:24;;;;;;;16.58;2.90;;;4.10;99.90;;;;;;5027616;28;25061;-70
2022/02/05 06:25:50;;;;;;;16.63;3.03;;;4.10;99.90;;;;;;5022935;28;25167;-70
2022/02/05 06:28:16;;;;;;;19.02;3.50;;;4.10;99.90;;;;;;5026914;28;25104;-70
2022/02/05 06:30:42;;;;;;;15.20;4.10;;;4.20;99.90;;;;;;5025924;28;25059;-71
2022/02/05 06:33:08;;;;;;;17.67;4.15;;;4.20;99.90;;;;;;5035179;28;25129;-70
2022/02/05 06:35:34;;;;;;;18.13;3.20;;;4.10;99.90;;;;;;5024367;28;25054;-70
2022/02/05 06:38:00;;;;;;;15.85;3.45;;;4.10;99.90;;;;;;5045818;28;25067;-71
2022/02/05 06:40:26;;;;;;;18.75;3.13;;;4.20;99.90;;;;;;5039628;28;25106;-71
2022/02/05 06:42:52;;;;;;;22.42;4.45;;;4.20;99.90;;;;;;5038002;28;25061;-72
2022/02/05 06:45:18;;;;;;;20.75;3.60;;;4.20;99.90;;;;;;5039977;28;25063;-71
2022/02/05 06:47:44;;;;;;;15.02;3.88;;;4.20;99.90;;;;;;5049112;28;25057;-71
2022/02/05 06:50:10;;;;;;;18.60;3.35;;;4.30;99.90;;;;;;5030670;28;25056;-70
2022/02/05 06:52:36;;;;;;;14.25;3.63;;;4.30;99.90;;;;;;5048630;28;25071;-70
2022/02/05 06:55:03;;;;;;;19.83;4.28;;;4.40;99.90;;;;;;5045372;28;25070;-71
2022/02/05 06:57:29;;;;;;;15.35;3.20;;;4.50;99.90;;;;;;5039167;28;25058;-70
2022/02/05 06:59:54;;;;;;;17.65;4.28;;;4.50;99.90;;;;;;5016256;28;25086;-70
2022/02/05 07:02:20;;;;;;;11.90;3.28;;;4.60;99.90;;;;;;5028340;28;25058;-70
2022/02/05 07:04:47;;;;;;;19.08;3.17;;;4.60;99.90;;;;;;5027940;28;25113;-70
2022/02/05 07:07:12;;;;;;;14.48;3.42;;;4.60;99.90;;;;;;5028214;28;25069;-71
2022/02/05 07:09:38;;;;;;;18.77;3.38;;;4.60;99.90;;;;;;5009916;28;25154;-71
2022/02/05 07:12:06;;;;;;;18.70;3.40;;;4.60;99.90;;;;;;5032493;28;25072;-70
2022/02/05 07:14:41;;;;;;;19.35;3.28;;;4.70;99.90;;;;;;5042757;28;25055;-70
2022/02/05 07:17:19;;;;;;;16.85;2.78;;;4.60;99.90;;;;;;5026341;28;25096;-70
2022/02/05 07:19:58;;;;;;;22.10;3.10;;;4.60;99.90;;;;;;5027408;28;25060;-71
2022/02/05 07:22:27;;;;;;;14.40;2.97;;;4.60;99.90;;;;;;5028906;28;25175;-69
2022/02/05 07:30:06;;;;;;;17.15;3.92;;;4.70;99.90;;;;;;5027338;28;25081;-70
2022/02/05 07:32:32;;;;;;;20.30;3.40;;;4.70;99.90;;;;;;5031770;28;25123;-69
2022/02/05 07:34:58;;;;;;;17.25;3.35;;;4.70;99.90;;;;;;5024001;28;25103;-70
2022/02/05 07:37:23;;;;;;;17.60;3.38;;;4.70;99.90;;;;;;5025880;28;25086;-72
2022/02/05 07:39:49;;;;;;;19.08;3.50;;;4.70;99.90;;;;;;5026884;28;25141;-70
2022/02/05 07:42:16;;;;;;;12.18;3.20;;;4.60;99.90;;;;;;5026495;28;25082;-72
2022/02/05 07:44:42;;;;;;;15.18;3.35;;;4.60;99.90;;;;;;5039290;28;25054;-70
2022/02/05 07:47:08;;;;;;;15.77;3.30;;;4.60;99.90;;;;;;5033310;28;25067;-70
2022/02/05 07:49:41;;;;;;;19.75;4.55;;;4.60;99.90;;;;;;5011741;28;25094;-70
2022/02/05 07:52:08;;;;;;;15.40;3.45;;;4.70;99.90;;;;;;5021717;28;25065;-71
2022/02/05 07:54:33;;;;;;;24.17;2.88;;;4.70;99.90;;;;;;5031859;28;25059;-70
2022/02/05 07:56:59;;;;;;;18.35;3.03;;;4.70;99.90;;;;;;5030963;28;25058;-69
2022/02/05 07:59:24;;;;;;;20.55;3.38;;;4.70;99.90;;;;;;5028384;28;25065;-70
2022/02/05 08:01:50;;;;;;;13.27;2.67;;;4.70;99.90;;;;;;5035562;28;25107;-70
2022/02/05 08:04:16;;;;;;;20.40;3.92;;;4.70;99.90;;;;;;5008784;28;25076;-70
2022/02/05 08:06:44;;;;;;;14.25;3.42;;;4.70;99.90;;;;;;5033206;28;25106;-73
2022/02/05 08:09:20;;;;;;;18.83;3.30;;;4.70;99.90;;;;;;5031550;28;25077;-72
2022/02/05 08:14:19;;;;;;;17.05;3.72;;;4.80;99.90;;;;;;5026926;28;25117;-70
2022/02/05 08:19:10;;;;;;;20.67;3.22;;;4.90;99.90;;;;;;5030139;28;25127;-70
2022/02/05 08:21:36;;;;;;;22.45;3.33;;;5.00;99.90;;;;;;5038082;28;25090;-69
2022/02/05 08:24:02;;;;;;;19.00;3.25;;;5.00;99.90;;;;;;5026571;28;25075;-70
2022/02/05 08:26:29;;;;;;;23.40;3.95;;;5.00;99.90;;;;;;5023397;28;25059;-70
2022/02/05 08:28:55;;;;;;;19.73;3.03;;;5.00;99.90;;;;;;5025188;28;25080;-70
2022/02/05 08:31:21;;;;;;;15.20;2.90;;;5.00;99.90;;;;;;5026825;28;25116;-72
2022/02/05 08:33:47;;;;;;;15.15;3.00;;;5.10;99.90;;;;;;5032109;28;25076;-69
2022/02/05 08:36:13;;;;;;;18.75;3.05;;;5.10;99.90;;;;;;5010524;28;25058;-71
2022/02/05 08:38:39;;;;;;;20.58;3.05;;;5.10;99.90;;;;;;5026406;28;25141;-71
2022/02/05 08:41:04;;;;;;;16.20;3.85;;;5.20;99.90;;;;;;5026624;28;25086;-70
2022/02/05 08:43:30;;;;;;;17.20;3.42;;;5.30;99.90;;;;;;5036672;28;25106;-71
2022/02/05 08:46:00;;;;;;;13.70;2.90;;;5.40;99.90;;;;;;5015490;28;25081;-69
2022/02/05 08:48:26;;;;;;;16.42;3.15;;;5.50;99.90;;;;;;5011245;28;25076;-67
2022/02/05 08:50:51;;;;;;;15.63;2.92;;;5.40;99.90;;;;;;5028686;28;25060;-69
2022/02/05 08:53:20;;;;;;;17.88;3.30;;;5.50;99.90;;;;;;5033831;28;25073;-67
2022/02/05 08:55:51;;;;;;;22.00;3.50;;;5.50;99.90;;;;;;5019439;28;25095;-67
2022/02/05 08:58:17;;;;;;;17.92;3.38;;;5.50;99.90;;;;;;5028255;28;25068;-67
2022/02/05 09:01:06;;;;;;;24.38;4.30;;;5.50;99.90;;;;;;5020743;28;25106;-67
2022/02/05 09:03:34;;;;;;;12.07;3.10;;;5.50;99.90;;;;;;5027881;28;25133;-68
2022/02/05 09:06:01;;;;;;;21.38;2.90;;;5.50;99.90;;;;;;5028758;28;25164;-67
2022/02/05 09:11:42;;;;;;;16.42;3.30;;;5.50;99.90;;;;;;4946654;28;25043;-67
2022/02/05 09:14:18;;;;;;;20.08;3.33;;;5.50;99.90;;;;;;5017876;28;25076;-69
2022/02/05 09:16:45;;;;;;;15.77;2.78;;;5.50;99.90;;;;;;5027294;28;25120;-67
2022/02/05 09:19:12;;;;;;;11.93;2.67;;;5.50;99.90;;;;;;5026984;28;25066;-69
2022/02/05 09:21:38;;;;;;;15.50;2.88;;;5.60;99.90;;;;;;5021277;28;25071;-68
2022/02/05 09:24:06;;;;;;;17.67;2.97;;;5.60;99.90;;;;;;5035748;28;25058;-68
2022/02/05 09:26:34;;;;;;;11.38;2.65;;;5.60;99.90;;;;;;5025560;28;25102;-68
2022/02/05 09:29:03;;;;;;;12.13;3.22;;;5.60;99.90;;;;;;5020667;28;25059;-66
2022/02/05 09:31:34;;;;;;;19.25;3.28;;;5.70;99.90;;;;;;5022023;28;25057;-68
2022/02/05 09:34:01;;;;;;;19.23;3.38;;;5.70;99.90;;;;;;5024669;28;25066;-67
2022/02/05 09:36:27;;;;;;;14.55;2.88;;;5.70;99.90;;;;;;5028223;28;25075;-66
2022/02/05 09:38:55;;;;;;;14.77;3.13;;;5.80;99.90;;;;;;5026056;28;25067;-68
2022/02/05 09:41:21;;;;;;;17.33;3.00;;;5.80;99.90;;;;;;5028308;28;25100;-68
2022/02/05 09:43:48;;;;;;;14.65;2.95;;;5.80;99.90;;;;;;5005710;28;25144;-70
2022/02/05 09:46:18;;;;;;;22.50;3.25;;;5.80;99.90;;;;;;5027350;28;25084;-69
2022/02/05 09:48:46;;;;;;;24.27;3.15;;;5.90;99.90;;;;;;5029045;28;25068;-69
2022/02/05 09:51:20;;;;;;;17.20;3.10;;;6.00;99.90;;;;;;5010122;28;25079;-69
2022/02/05 09:53:51;;;;;;;19.90;3.15;;;6.00;99.90;;;;;;5010765;28;25072;-69
2022/02/05 09:56:18;;;;;;;17.08;3.22;;;6.10;99.90;;;;;;5015349;28;25068;-67
2022/02/05 09:58:44;;;;;;;15.48;3.63;;;6.10;99.90;;;;;;5023133;28;25095;-68
2022/02/05 10:01:50;;;;;;;12.40;2.75;;;6.20;99.90;;;;;;5008488;28;25139;-68
2022/02/05 10:04:16;;;;;;;19.75;3.05;;;6.30;99.90;;;;;;5017477;28;25099;-70
2022/02/05 10:06:48;;;;;;;20.52;3.42;;;6.30;99.90;;;;;;5025659;28;25099;-68
2022/02/05 10:09:15;;;;;;;24.43;3.03;;;6.30;99.90;;;;;;5026808;28;25083;-72
2022/02/05 10:11:47;;;;;;;27.67;3.60;;;6.30;99.90;;;;;;5028541;28;25108;-72
2022/02/05 10:14:15;;;;;;;20.35;4.15;;;6.40;99.90;;;;;;5006691;28;25067;-71
2022/02/05 10:16:40;;;;;;;25.05;4.03;;;6.50;99.90;;;;;;5024501;28;25092;-71
2022/02/05 10:19:06;;;;;;;18.02;3.47;;;6.40;99.90;;;;;;5021309;28;25104;-70
2022/02/05 10:21:32;;;;;;;22.55;3.35;;;6.50;99.90;;;;;;5023006;28;25066;-72
2022/02/05 10:23:59;;;;;;;13.68;3.05;;;6.50;99.90;;;;;;5017992;28;25101;-70
2022/02/05 10:26:40;;;;;;;17.02;3.17;;;6.60;99.90;;;;;;5004064;28;25101;-70
2022/02/05 10:29:15;;;;;;;15.90;3.33;;;6.70;99.90;;;;;;5019293;28;25055;-70
2022/02/05 10:32:14;;;;;;;18.58;3.38;;;6.80;99.90;;;;;;5025879;28;25052;-71
2022/02/05 10:34:53;;;;;;;20.80;3.55;;;6.80;99.90;;;;;;5028436;28;25060;-70
2022/02/05 10:37:23;;;;;;;20.63;3.03;;;6.80;99.90;;;;;;5006173;28;25052;-72
2022/02/05 10:40:10;;;;;;;12.18;3.50;;;6.80;99.90;;;;;;5028001;28;25524;-69
2022/02/05 10:45:52;;;;;;;14.88;3.67;;;7.00;99.90;;;;;;5030572;28;25080;-70
2022/02/05 10:48:19;;;;;;;17.95;4.43;;;7.10;99.90;;;;;;5019985;28;25079;-70
2022/02/05 10:50:47;;;;;;;15.25;3.03;;;7.10;99.90;;;;;;5018923;28;25057;-68
2022/02/05 10:53:31;;;;;;;18.95;3.15;;;7.10;99.90;;;;;;5026615;28;25107;-71
2022/02/05 11:07:16;;;;;;;23.58;4.18;;;7.50;99.90;;;;;;5027385;28;25113;-68
2022/02/05 11:09:46;;;;;;;15.77;3.88;;;7.70;99.90;;;;;;5030816;28;25078;-69
2022/02/05 11:13:21;;;;;;;13.68;3.53;;;7.80;99.90;;;;;;5037464;28;25106;-70
2022/02/05 11:20:40;;;;;;;16.17;3.78;;;7.90;99.90;;;;;;5028514;28;25066;-70
2022/02/05 11:23:08;;;;;;;18.50;3.33;;;7.90;99.90;;;;;;5023290;28;25111;-69
2022/02/05 11:25:36;;;;;;;28.55;4.90;;;7.80;99.90;;;;;;5026293;28;25127;-73
2022/02/05 11:28:03;;;;;;;17.33;3.35;;;7.80;99.90;;;;;;5027169;28;25049;-69
2022/02/05 11:30:43;;;;;;;16.45;3.38;;;7.90;99.90;;;;;;5027789;28;25162;-71
2022/02/05 11:33:23;;;;;;;10.30;2.88;;;8.00;99.90;;;;;;5019240;28;25062;-73
2022/02/05 11:38:30;;;;;;;12.90;2.85;;;8.20;99.90;;;;;;5026278;28;25087;-70
2022/02/05 11:40:57;;;;;;;16.95;3.30;;;8.20;99.90;;;;;;5022315;28;25076;-71
2022/02/05 11:43:28;;;;;;;21.58;3.92;;;7.80;99.90;;;;;;5023744;28;25093;-68
2022/02/05 11:46:18;;;;;;;22.40;3.60;;;7.90;99.90;;;;;;5009848;28;25093;-71
2022/02/05 11:48:57;;;;;;;26.95;4.53;;;7.90;99.90;;;;;;5026264;28;25080;-70
2022/02/05 11:51:31;;;;;;;18.58;3.70;;;8.00;99.90;;;;;;5015683;28;25102;-71
2022/02/05 11:53:59;;;;;;;15.07;3.58;;;7.90;99.90;;;;;;5007457;28;25063;-71
2022/02/05 11:56:48;;;;;;;17.10;2.78;;;7.70;99.90;;;;;;5014842;28;25152;-70
2022/02/05 11:59:14;;;;;;;21.23;3.40;;;7.60;99.90;;;;;;5027467;28;25077;-69
2022/02/05 12:01:40;;;;;;;24.83;3.45;;;7.60;99.90;;;;;;5027277;28;25060;-71
2022/02/05 12:04:21;;;;;;;19.73;3.20;;;7.50;99.90;;;;;;5022601;28;25075;-70
2022/02/05 12:06:52;;;;;;;20.38;3.25;;;7.50;99.90;;;;;;5001769;28;25056;-70
2022/02/05 12:09:39;;;;;;;18.73;3.47;;;7.90;99.90;;;;;;5024547;28;25146;-70
2022/02/05 12:12:40;;;;;;;17.35;3.50;;;7.80;99.90;;;;;;5026100;28;25098;-70
2022/02/05 12:15:17;;;;;;;12.05;2.67;;;7.70;99.90;;;;;;4996834;28;25100;-70
2022/02/05 12:18:00;;;;;;;20.60;3.47;;;7.70;99.90;;;;;;5022176;28;25072;-69
2022/02/05 12:20:30;;;;;;;18.60;3.47;;;7.50;99.90;;;;;;5014958;28;25066;-69
2022/02/05 12:23:12;;;;;;;16.15;3.97;;;7.50;99.90;;;;;;5036481;28;25141;-69
2022/02/05 12:25:56;;;;;;;16.95;3.70;;;7.30;99.90;;;;;;5011617;28;25130;-71
2022/02/05 12:28:36;;;;;;;12.82;3.30;;;7.40;99.90;;;;;;5037470;28;25056;-71
2022/02/05 12:31:25;;;;;;;22.48;3.35;;;7.50;99.90;;;;;;5047440;28;25101;-68
2022/02/05 12:33:59;;;;;;;20.88;3.30;;;7.70;99.90;;;;;;5033559;28;25049;-67
2022/02/05 12:36:40;;;;;;;20.13;4.32;;;7.70;99.90;;;;;;5029526;28;25064;-71
2022/02/05 12:39:28;;;;;;;17.88;3.50;;;7.70;99.90;;;;;;5026639;28;25142;-72
2022/02/05 12:41:58;;;;;;;22.35;3.63;;;8.10;99.90;;;;;;5012573;28;25060;-68
2022/02/05 12:44:27;;;;;;;13.30;4.32;;;8.40;99.90;;;;;;5011558;28;25061;-70
2022/02/05 12:47:06;;;;;;;19.05;3.88;;;8.60;99.90;;;;;;5003217;28;25096;-70
2022/02/05 12:49:40;;;;;;;17.55;3.70;;;8.60;99.90;;;;;;5028746;28;25057;-71
2022/02/05 12:52:06;;;;;;;16.17;3.72;;;8.40;99.90;;;;;;5028951;28;25172;-71
2022/02/05 12:54:34;;;;;;;17.05;3.63;;;8.70;99.90;;;;;;5028471;28;25102;-70
2022/02/05 12:57:01;;;;;;;16.55;3.97;;;8.70;99.90;;;;;;5030674;28;25053;-70
2022/02/05 12:59:32;;;;;;;16.10;3.47;;;8.70;99.90;;;;;;5011239;28;25065;-70
2022/02/05 13:02:07;;;;;;;10.75;2.60;;;8.80;99.90;;;;;;5020512;28;25103;-70
2022/02/05 13:04:46;;;;;;;22.35;3.38;;;8.80;99.90;;;;;;4996917;28;25077;-69
2022/02/05 13:07:21;;;;;;;16.27;2.88;;;9.10;99.80;;;;;;5011749;28;25151;-70
2022/02/05 13:10:04;;;;;;;16.02;3.83;;;9.30;98.80;;;;;;5020304;28;25131;-66
2022/02/05 13:12:40;;;;;;;11.43;3.22;;;9.30;98.70;;;;;;5025656;28;25124;-70
2022/02/05 13:15:27;;;;;;;19.52;4.60;;;9.10;98.70;;;;;;5018815;28;25064;-70
2022/02/05 13:28:38;;;;;;;19.33;4.03;;;8.50;99.90;;;;;;5019603;28;25062;-70
2022/02/05 13:36:25;;;;;;;20.52;3.10;;;8.70;99.90;;;;;;5031948;28;25089;-70
2022/02/05 13:41:44;;;;;;;13.95;3.40;;;8.50;99.90;;;;;;5029770;28;25069;-71
2022/02/05 13:44:14;;;;;;;18.02;2.90;;;8.60;99.90;;;;;;5036789;28;25074;-69
2022/02/05 13:46:40;;;;;;;20.73;4.97;;;8.60;99.90;;;;;;5029935;28;24998;-69
2022/02/05 13:49:18;;;;;;;18.15;2.92;;;8.60;99.90;;;;;;5013827;28;25101;-70
2022/02/05 13:51:45;;;;;;;19.90;3.42;;;8.50;99.90;;;;;;5009895;28;25053;-69
2022/02/05 13:54:11;;;;;;;12.98;3.38;;;8.60;99.90;;;;;;5027171;28;25109;-70
2022/02/05 13:56:37;;;;;;;17.88;3.00;;;8.50;99.90;;;;;;5024268;28;25070;-70
2022/02/05 13:59:04;;;;;;;15.27;2.95;;;8.50;99.90;;;;;;5026192;28;25099;-70
2022/02/05 14:01:35;;;;;;;17.75;3.25;;;8.50;99.90;;;;;;5025216;28;25065;-71
2022/02/05 14:04:24;;;;;;;21.45;3.42;;;8.40;99.90;;;;;;5026287;28;25063;-70
2022/02/05 14:06:58;;;;;;;18.90;3.22;;;8.50;99.90;;;;;;5021750;28;25080;-72
2022/02/05 14:09:29;;;;;;;16.55;3.35;;;8.40;99.90;;;;;;5019754;28;25081;-70
2022/02/05 14:11:57;;;;;;;22.17;4.17;;;8.50;99.90;;;;;;5019111;28;25068;-72
2022/02/05 14:14:31;;;;;;;19.08;3.58;;;8.40;99.90;;;;;;5014851;28;25136;-70
2022/02/05 14:16:57;;;;;;;23.88;3.60;;;8.40;99.90;;;;;;5027028;28;25069;-70
2022/02/05 14:19:25;;;;;;;14.18;3.38;;;8.40;99.90;;;;;;5016711;28;25107;-72
2022/02/05 14:21:53;;;;;;;17.88;3.17;;;8.40;99.90;;;;;;5022779;28;25079;-73
2022/02/05 14:24:23;;;;;;;12.73;3.08;;;8.40;99.90;;;;;;5003156;28;25129;-71
2022/02/05 14:29:20;;;;;;;17.88;3.00;;;8.40;99.90;;;;;;5026258;28;25090;-70
2022/02/05 14:31:49;;;;;;;13.63;2.95;;;8.40;99.90;;;;;;5027733;28;25049;-72
2022/02/05 14:34:43;;;;;;;20.70;3.55;;;8.40;99.90;;;;;;5028298;28;25056;-72
2022/02/05 14:42:37;;;;;;;10.48;2.55;;;8.40;99.90;;;;;;5025249;28;25069;-72
2022/02/05 14:45:03;;;;;;;15.73;2.65;;;8.40;99.90;;;;;;5025185;28;25099;-70
2022/02/05 14:47:30;;;;;;;19.83;4.63;;;8.40;99.90;;;;;;5013338;28;25066;-71
2022/02/05 14:49:56;;;;;;;15.77;2.65;;;8.50;99.90;;;;;;5023105;28;25139;-71
2022/02/05 14:52:22;;;;;;;13.60;2.83;;;8.40;99.90;;;;;;5026682;28;25090;-72
2022/02/05 14:54:48;;;;;;;19.63;3.67;;;8.40;99.90;;;;;;5008784;28;25080;-71
2022/02/05 14:57:14;;;;;;;14.90;3.20;;;8.40;99.90;;;;;;5020822;28;25169;-70
2022/02/05 14:59:41;;;;;;;10.23;2.72;;;8.50;99.90;;;;;;5025617;28;25079;-71
2022/02/05 15:02:08;;;;;;;23.85;3.65;;;8.40;99.90;;;;;;5009301;28;25062;-69
2022/02/05 15:04:36;;;;;;;21.85;3.63;;;8.50;99.90;;;;;;5008647;28;25133;-70
2022/02/05 15:07:03;;;;;;;22.25;3.10;;;8.40;99.90;;;;;;5005607;28;25116;-70
2022/02/05 15:09:28;;;;;;;16.95;3.97;;;8.40;99.90;;;;;;5026505;28;25066;-71
2022/02/05 15:11:54;;;;;;;19.55;3.50;;;8.30;99.90;;;;;;5028627;28;25063;-69
2022/02/05 15:14:20;;;;;;;20.65;3.38;;;8.30;99.90;;;;;;5034385;28;25058;-71
2022/02/05 15:16:45;;;;;;;16.20;3.05;;;8.30;99.90;;;;;;5035077;28;25072;-73
2022/02/05 15:19:13;;;;;;;13.65;2.92;;;8.30;99.90;;;;;;5037722;28;25059;-70
2022/02/05 15:21:42;;;;;;;26.15;4.15;;;8.30;99.90;;;;;;5017880;28;25154;-69
2022/02/05 15:24:08;;;;;;;12.40;3.08;;;8.30;99.90;;;;;;5014562;28;25067;-66
2022/02/05 15:26:35;;;;;;;16.40;3.83;;;8.30;99.90;;;;;;5031881;28;25127;-69
2022/02/05 15:29:03;;;;;;;17.33;3.70;;;8.30;99.90;;;;;;5029778;28;25086;-68
2022/02/05 15:31:30;;;;;;;16.98;3.97;;;8.30;99.90;;;;;;5028358;28;25058;-70
2022/02/05 15:33:58;;;;;;;14.75;3.95;;;8.30;99.90;;;;;;5021499;28;25063;-70
2022/02/05 15:36:34;;;;;;;12.00;4.63;;;8.30;99.90;;;;;;5027205;28;25074;-71
2022/02/05 15:44:14;;;;;;;16.20;3.08;;;8.20;99.90;;;;;;5025795;28;25175;-72
2022/02/05 15:46:39;;;;;;;16.65;2.83;;;8.20;99.90;;;;;;5031832;28;25085;-71
2022/02/05 15:49:05;;;;;;;20.90;3.30;;;8.30;99.90;;;;;;5027938;28;25134;-70
2022/02/05 15:51:32;;;;;;;13.50;2.90;;;8.30;99.90;;;;;;5031274;28;25072;-70
2022/02/05 15:54:01;;;;;;;13.38;2.63;;;8.20;99.90;;;;;;5030522;28;25080;-71
2022/02/05 15:59:03;;;;;;;22.25;4.68;;;8.20;99.90;;;;;;5026890;28;25103;-70
2022/02/05 16:01:29;;;;;;;14.63;2.58;;;8.20;99.90;;;;;;5032602;28;25075;-69
2022/02/05 16:03:55;;;;;;;14.57;2.45;;;8.20;99.90;;;;;;5024328;28;25128;-71
2022/02/05 16:06:20;;;;;;;16.85;3.28;;;8.20;99.90;;;;;;5022358;28;25125;-71
2022/02/05 16:08:46;;;;;;;14.40;3.22;;;8.20;99.90;;;;;;5022638;28;25072;-71
2022/02/05 16:11:13;;;;;;;13.27;2.75;;;8.20;99.90;;;;;;5013550;28;25111;-68